Mc Grath Airport
PAMC : rendu visible

Aérodrome :











RETROUVEZ-NOUS SUR...

 
LOGIN :

S'inscrire | Disclaimer

   EN    FR    IT 

 









Légende :    VFR   VFR Marginal   IFR   IFR Intensif   IFR Très Intensif
Visi : 
Plafond : 
>= 8 km
>= 3000ft
5 à 8 km
1000 à 3000 ft
1500m à 5 km
500 à 1000 ft
800 à 1500m
200 à 500 ft
< 800m
< 200 ft
Symboles :   Orages  Brouillard  Fortes neiges  Fortes précipitations  Vent > 20 kt






- Altitude de l'aérodrome : 341 ft
- Code IATA : MCG


PAMC - Mc Grath

DERNIER METAR :
  • 250853Z AUTO 18004KT 10SM OVC100 10/05 A2970 RMK AO2 SLP063 T01000050 401500078 51024 TSNO $

METARs EXPIRÉS :
  • 250753Z AUTO 17004KT 10SM OVC100 11/05 A2968 RMK AO2 SLP055 T01060050 TSNO $
  • 250653Z AUTO 18006KT 10SM OVC100 11/05 A2966 RMK AO2 SLP047 T01110050 TSNO $
  • 250553Z AUTO 21009KT 10SM OVC085 12/05 A2963 RMK AO2 SLP038 T01170050 10150 20117 51026 TSNO $

TAF PAMC
Valide du 25 à 06h jusqu'au 26 à 06h UTC


250520Z 2506/2606 20012G18KT P6SM -SHRA OVC050
FM250800 VRB04KT P6SM VCSH BKN050 OVC100
FIR PAZA / Amérique du Nord



MET'MAP, la Météo Aéronautique d'un coup d'oeil ! - Copyright ORBIFLY Décembre 2007 - Disclaimer

ORBIFLY MET'MAP TEAM :

Programmation & Développement : Alexandra Zaïnal
Sur une idée originale de : Baudouin d'Aumeries
Assistance à la programmation : Marc-Olivier Méhu
Soutien technique & logistique : Manuel Goepfert

Contact : metmap@orbifly.com




SOURCES & CREDITS :

   NOAA       Earth
Advisory